sensor_id;sensor_type;location;lat;lon;timestamp;P1;durP1;ratioP1;P2;durP2;ratioP2
1601;SDS011;794;48.592;9.634;2023-02-17T00:02:05;4.27;;;3.90;;
1601;SDS011;794;48.592;9.634;2023-02-17T00:04:32;5.60;;;4.07;;
1601;SDS011;794;48.592;9.634;2023-02-17T00:06:59;4.70;;;3.53;;
1601;SDS011;794;48.592;9.634;2023-02-17T00:09:26;6.20;;;4.20;;
1601;SDS011;794;48.592;9.634;2023-02-17T00:11:53;4.80;;;3.63;;
1601;SDS011;794;48.592;9.634;2023-02-17T00:14:20;3.87;;;3.50;;
1601;SDS011;794;48.592;9.634;2023-02-17T00:16:47;4.20;;;3.67;;
1601;SDS011;794;48.592;9.634;2023-02-17T00:19:15;4.70;;;3.67;;
1601;SDS011;794;48.592;9.634;2023-02-17T00:21:48;5.13;;;3.90;;
1601;SDS011;794;48.592;9.634;2023-02-17T00:24:16;6.40;;;4.30;;
1601;SDS011;794;48.592;9.634;2023-02-17T00:26:43;3.83;;;3.53;;
1601;SDS011;794;48.592;9.634;2023-02-17T00:29:10;4.77;;;3.73;;
1601;SDS011;794;48.592;9.634;2023-02-17T00:31:37;6.83;;;4.03;;
1601;SDS011;794;48.592;9.634;2023-02-17T00:34:04;4.60;;;4.20;;
1601;SDS011;794;48.592;9.634;2023-02-17T00:36:32;11.30;;;4.00;;
1601;SDS011;794;48.592;9.634;2023-02-17T00:38:59;5.60;;;3.40;;
1601;SDS011;794;48.592;9.634;2023-02-17T00:41:26;5.50;;;4.10;;
1601;SDS011;794;48.592;9.634;2023-02-17T00:43:54;6.83;;;3.97;;
1601;SDS011;794;48.592;9.634;2023-02-17T00:46:21;4.87;;;3.63;;
1601;SDS011;794;48.592;9.634;2023-02-17T00:48:49;4.80;;;4.00;;
1601;SDS011;794;48.592;9.634;2023-02-17T00:51:16;4.90;;;4.30;;
1601;SDS011;794;48.592;9.634;2023-02-17T00:53:45;4.20;;;3.80;;
1601;SDS011;794;48.592;9.634;2023-02-17T00:56:12;5.53;;;4.17;;
1601;SDS011;794;48.592;9.634;2023-02-17T00:58:39;6.83;;;3.90;;
1601;SDS011;794;48.592;9.634;2023-02-17T01:01:07;6.03;;;2.93;;
1601;SDS011;794;48.592;9.634;2023-02-17T01:03:35;5.23;;;3.47;;
1601;SDS011;794;48.592;9.634;2023-02-17T01:06:04;4.80;;;3.40;;
1601;SDS011;794;48.592;9.634;2023-02-17T01:08:32;8.17;;;3.53;;
1601;SDS011;794;48.592;9.634;2023-02-17T01:11:01;11.77;;;4.10;;
1601;SDS011;794;48.592;9.634;2023-02-17T01:13:28;4.10;;;2.97;;
1601;SDS011;794;48.592;9.634;2023-02-17T01:15:55;7.37;;;4.10;;
1601;SDS011;794;48.592;9.634;2023-02-17T01:18:22;8.00;;;3.70;;
1601;SDS011;794;48.592;9.634;2023-02-17T01:20:50;6.63;;;3.43;;
1601;SDS011;794;48.592;9.634;2023-02-17T01:23:17;4.20;;;3.60;;
1601;SDS011;794;48.592;9.634;2023-02-17T01:25:45;10.00;;;3.97;;
1601;SDS011;794;48.592;9.634;2023-02-17T01:28:15;4.37;;;3.20;;
1601;SDS011;794;48.592;9.634;2023-02-17T01:30:44;8.53;;;3.17;;
1601;SDS011;794;48.592;9.634;2023-02-17T01:33:12;8.03;;;3.03;;
1601;SDS011;794;48.592;9.634;2023-02-17T01:35:39;7.00;;;4.20;;
1601;SDS011;794;48.592;9.634;2023-02-17T01:38:06;5.23;;;3.00;;
1601;SDS011;794;48.592;9.634;2023-02-17T01:40:33;5.57;;;2.67;;
1601;SDS011;794;48.592;9.634;2023-02-17T01:43:00;6.10;;;2.97;;
1601;SDS011;794;48.592;9.634;2023-02-17T01:45:30;3.73;;;2.90;;
1601;SDS011;794;48.592;9.634;2023-02-17T01:48:08;7.80;;;2.93;;
1601;SDS011;794;48.592;9.634;2023-02-17T01:50:39;5.07;;;4.10;;
1601;SDS011;794;48.592;9.634;2023-02-17T01:53:09;5.00;;;4.60;;
1601;SDS011;794;48.592;9.634;2023-02-17T01:55:39;6.53;;;2.27;;
1601;SDS011;794;48.592;9.634;2023-02-17T01:58:07;5.30;;;3.07;;
1601;SDS011;794;48.592;9.634;2023-02-17T02:00:40;4.20;;;2.80;;
1601;SDS011;794;48.592;9.634;2023-02-17T02:03:09;5.23;;;3.47;;
1601;SDS011;794;48.592;9.634;2023-02-17T02:05:38;4.40;;;2.80;;
1601;SDS011;794;48.592;9.634;2023-02-17T02:08:06;4.77;;;3.90;;
1601;SDS011;794;48.592;9.634;2023-02-17T02:10:34;3.67;;;2.90;;
1601;SDS011;794;48.592;9.634;2023-02-17T02:13:01;5.00;;;2.70;;
1601;SDS011;794;48.592;9.634;2023-02-17T02:15:30;2.00;;;1.90;;
1601;SDS011;794;48.592;9.634;2023-02-17T02:18:06;4.13;;;2.90;;
1601;SDS011;794;48.592;9.634;2023-02-17T02:20:51;3.50;;;2.53;;
1601;SDS011;794;48.592;9.634;2023-02-17T02:23:46;3.80;;;3.10;;
1601;SDS011;794;48.592;9.634;2023-02-17T02:26:30;4.90;;;2.80;;
1601;SDS011;794;48.592;9.634;2023-02-17T02:29:42;3.23;;;2.50;;
1601;SDS011;794;48.592;9.634;2023-02-17T02:32:45;3.23;;;2.90;;
1601;SDS011;794;48.592;9.634;2023-02-17T02:35:16;4.13;;;2.83;;
1601;SDS011;794;48.592;9.634;2023-02-17T02:37:51;4.03;;;2.50;;
1601;SDS011;794;48.592;9.634;2023-02-17T02:40:23;5.20;;;3.03;;
1601;SDS011;794;48.592;9.634;2023-02-17T02:42:53;8.50;;;3.30;;
1601;SDS011;794;48.592;9.634;2023-02-17T02:45:22;3.63;;;3.00;;
1601;SDS011;794;48.592;9.634;2023-02-17T02:47:51;9.00;;;3.23;;
1601;SDS011;794;48.592;9.634;2023-02-17T02:50:20;2.57;;;2.33;;
1601;SDS011;794;48.592;9.634;2023-02-17T02:52:57;4.60;;;3.20;;
1601;SDS011;794;48.592;9.634;2023-02-17T02:55:39;6.47;;;3.27;;
1601;SDS011;794;48.592;9.634;2023-02-17T02:58:16;3.23;;;2.57;;
1601;SDS011;794;48.592;9.634;2023-02-17T03:00:48;4.50;;;3.30;;
1601;SDS011;794;48.592;9.634;2023-02-17T03:03:23;4.40;;;3.00;;
1601;SDS011;794;48.592;9.634;2023-02-17T03:06:01;4.53;;;2.50;;
1601;SDS011;794;48.592;9.634;2023-02-17T03:08:35;2.93;;;2.63;;
1601;SDS011;794;48.592;9.634;2023-02-17T03:11:05;4.00;;;2.77;;
1601;SDS011;794;48.592;9.634;2023-02-17T03:13:33;9.50;;;3.60;;
1601;SDS011;794;48.592;9.634;2023-02-17T03:16:06;7.80;;;2.73;;
1601;SDS011;794;48.592;9.634;2023-02-17T03:18:37;5.20;;;3.37;;
1601;SDS011;794;48.592;9.634;2023-02-17T03:21:05;4.83;;;4.17;;
1601;SDS011;794;48.592;9.634;2023-02-17T03:23:36;2.83;;;2.53;;
1601;SDS011;794;48.592;9.634;2023-02-17T03:26:03;5.17;;;3.17;;
1601;SDS011;794;48.592;9.634;2023-02-17T03:28:30;4.07;;;2.93;;
1601;SDS011;794;48.592;9.634;2023-02-17T03:30:57;4.63;;;2.67;;
1601;SDS011;794;48.592;9.634;2023-02-17T03:33:24;4.87;;;2.90;;
1601;SDS011;794;48.592;9.634;2023-02-17T03:35:52;4.07;;;2.27;;
1601;SDS011;794;48.592;9.634;2023-02-17T03:38:19;4.00;;;2.77;;
1601;SDS011;794;48.592;9.634;2023-02-17T03:40:46;4.40;;;3.70;;
1601;SDS011;794;48.592;9.634;2023-02-17T03:43:14;6.63;;;3.20;;
1601;SDS011;794;48.592;9.634;2023-02-17T03:45:41;5.40;;;3.27;;
1601;SDS011;794;48.592;9.634;2023-02-17T03:48:08;4.90;;;2.83;;
1601;SDS011;794;48.592;9.634;2023-02-17T03:50:35;3.00;;;2.20;;
1601;SDS011;794;48.592;9.634;2023-02-17T03:53:03;4.90;;;3.17;;
1601;SDS011;794;48.592;9.634;2023-02-17T03:55:30;4.90;;;3.03;;
1601;SDS011;794;48.592;9.634;2023-02-17T03:57:57;4.50;;;3.33;;
1601;SDS011;794;48.592;9.634;2023-02-17T04:00:24;4.80;;;3.20;;
1601;SDS011;794;48.592;9.634;2023-02-17T04:02:51;3.13;;;2.83;;
1601;SDS011;794;48.592;9.634;2023-02-17T04:05:18;5.07;;;3.10;;
1601;SDS011;794;48.592;9.634;2023-02-17T04:07:45;6.43;;;3.20;;
1601;SDS011;794;48.592;9.634;2023-02-17T04:10:13;3.20;;;2.90;;
1601;SDS011;794;48.592;9.634;2023-02-17T04:12:40;5.50;;;3.23;;
1601;SDS011;794;48.592;9.634;2023-02-17T04:15:07;7.50;;;2.70;;
1601;SDS011;794;48.592;9.634;2023-02-17T04:17:35;6.27;;;2.93;;
1601;SDS011;794;48.592;9.634;2023-02-17T04:20:02;3.50;;;2.60;;
1601;SDS011;794;48.592;9.634;2023-02-17T04:22:30;2.77;;;2.53;;
1601;SDS011;794;48.592;9.634;2023-02-17T04:24:57;4.37;;;2.17;;
1601;SDS011;794;48.592;9.634;2023-02-17T04:27:25;4.40;;;3.00;;
1601;SDS011;794;48.592;9.634;2023-02-17T04:29:52;5.90;;;2.27;;
1601;SDS011;794;48.592;9.634;2023-02-17T04:32:19;3.37;;;2.27;;
1601;SDS011;794;48.592;9.634;2023-02-17T04:34:46;5.00;;;2.33;;
1601;SDS011;794;48.592;9.634;2023-02-17T04:37:13;4.60;;;2.93;;
1601;SDS011;794;48.592;9.634;2023-02-17T04:39:40;3.03;;;2.60;;
1601;SDS011;794;48.592;9.634;2023-02-17T04:42:07;5.40;;;2.47;;
1601;SDS011;794;48.592;9.634;2023-02-17T04:44:35;6.00;;;3.20;;
1601;SDS011;794;48.592;9.634;2023-02-17T04:47:02;7.73;;;2.60;;
1601;SDS011;794;48.592;9.634;2023-02-17T04:49:29;5.87;;;2.47;;
1601;SDS011;794;48.592;9.634;2023-02-17T04:51:56;3.63;;;2.47;;
1601;SDS011;794;48.592;9.634;2023-02-17T04:54:23;2.53;;;1.93;;
1601;SDS011;794;48.592;9.634;2023-02-17T04:56:50;3.93;;;2.63;;
1601;SDS011;794;48.592;9.634;2023-02-17T04:59:17;2.90;;;2.60;;
1601;SDS011;794;48.592;9.634;2023-02-17T05:01:45;2.93;;;2.73;;
1601;SDS011;794;48.592;9.634;2023-02-17T05:04:12;4.30;;;2.90;;
1601;SDS011;794;48.592;9.634;2023-02-17T05:06:39;4.30;;;2.70;;
1601;SDS011;794;48.592;9.634;2023-02-17T05:09:06;3.10;;;2.70;;
1601;SDS011;794;48.592;9.634;2023-02-17T05:11:33;6.53;;;2.53;;
1601;SDS011;794;48.592;9.634;2023-02-17T05:14:00;4.17;;;2.90;;
1601;SDS011;794;48.592;9.634;2023-02-17T05:16:27;4.70;;;1.93;;
1601;SDS011;794;48.592;9.634;2023-02-17T05:18:55;3.93;;;2.10;;
1601;SDS011;794;48.592;9.634;2023-02-17T05:21:22;4.53;;;2.40;;
1601;SDS011;794;48.592;9.634;2023-02-17T05:23:49;3.70;;;2.33;;
1601;SDS011;794;48.592;9.634;2023-02-17T05:26:16;3.17;;;2.43;;
1601;SDS011;794;48.592;9.634;2023-02-17T05:28:42;6.77;;;2.80;;
1601;SDS011;794;48.592;9.634;2023-02-17T05:31:09;2.80;;;2.40;;
1601;SDS011;794;48.592;9.634;2023-02-17T05:33:37;4.30;;;2.67;;
1601;SDS011;794;48.592;9.634;2023-02-17T05:36:06;5.63;;;2.60;;
1601;SDS011;794;48.592;9.634;2023-02-17T05:38:35;5.93;;;2.23;;
1601;SDS011;794;48.592;9.634;2023-02-17T05:41:02;5.00;;;1.90;;
1601;SDS011;794;48.592;9.634;2023-02-17T05:43:30;2.67;;;1.90;;
1601;SDS011;794;48.592;9.634;2023-02-17T05:46:00;2.70;;;2.50;;
1601;SDS011;794;48.592;9.634;2023-02-17T05:48:27;2.50;;;2.27;;
1601;SDS011;794;48.592;9.634;2023-02-17T05:50:54;3.10;;;2.20;;
1601;SDS011;794;48.592;9.634;2023-02-17T05:53:23;2.30;;;1.87;;
1601;SDS011;794;48.592;9.634;2023-02-17T05:55:50;2.50;;;1.97;;
1601;SDS011;794;48.592;9.634;2023-02-17T05:58:17;3.53;;;2.17;;
1601;SDS011;794;48.592;9.634;2023-02-17T06:00:44;2.90;;;1.80;;
1601;SDS011;794;48.592;9.634;2023-02-17T06:03:11;4.83;;;2.43;;
1601;SDS011;794;48.592;9.634;2023-02-17T06:05:38;2.40;;;1.93;;
1601;SDS011;794;48.592;9.634;2023-02-17T06:08:05;2.40;;;1.70;;
1601;SDS011;794;48.592;9.634;2023-02-17T06:10:33;6.13;;;1.90;;
1601;SDS011;794;48.592;9.634;2023-02-17T06:13:00;2.53;;;1.70;;
1601;SDS011;794;48.592;9.634;2023-02-17T06:15:27;5.20;;;2.20;;
1601;SDS011;794;48.592;9.634;2023-02-17T06:17:55;2.37;;;1.50;;
1601;SDS011;794;48.592;9.634;2023-02-17T06:20:21;1.77;;;1.63;;
1601;SDS011;794;48.592;9.634;2023-02-17T06:22:48;5.67;;;2.10;;
1601;SDS011;794;48.592;9.634;2023-02-17T06:25:15;2.90;;;2.47;;
1601;SDS011;794;48.592;9.634;2023-02-17T06:27:44;3.67;;;2.13;;
1601;SDS011;794;48.592;9.634;2023-02-17T06:30:11;7.17;;;1.53;;
1601;SDS011;794;48.592;9.634;2023-02-17T06:32:39;2.10;;;1.47;;
1601;SDS011;794;48.592;9.634;2023-02-17T06:35:06;4.30;;;3.50;;
1601;SDS011;794;48.592;9.634;2023-02-17T06:37:33;2.33;;;1.87;;
1601;SDS011;794;48.592;9.634;2023-02-17T06:40:00;2.30;;;1.47;;
1601;SDS011;794;48.592;9.634;2023-02-17T06:42:27;1.97;;;1.67;;
1601;SDS011;794;48.592;9.634;2023-02-17T06:44:55;3.80;;;2.23;;
1601;SDS011;794;48.592;9.634;2023-02-17T06:47:22;9.80;;;4.80;;
1601;SDS011;794;48.592;9.634;2023-02-17T06:49:49;3.30;;;2.07;;
1601;SDS011;794;48.592;9.634;2023-02-17T06:52:16;3.00;;;1.20;;
1601;SDS011;794;48.592;9.634;2023-02-17T06:54:43;5.93;;;1.47;;
1601;SDS011;794;48.592;9.634;2023-02-17T06:57:11;1.63;;;1.27;;
1601;SDS011;794;48.592;9.634;2023-02-17T06:59:38;1.70;;;1.30;;
1601;SDS011;794;48.592;9.634;2023-02-17T07:02:08;5.53;;;1.40;;
1601;SDS011;794;48.592;9.634;2023-02-17T07:04:37;1.40;;;1.30;;
1601;SDS011;794;48.592;9.634;2023-02-17T07:07:04;3.23;;;1.50;;
1601;SDS011;794;48.592;9.634;2023-02-17T07:09:30;2.83;;;1.87;;
1601;SDS011;794;48.592;9.634;2023-02-17T07:11:57;1.43;;;1.20;;
1601;SDS011;794;48.592;9.634;2023-02-17T07:14:24;3.80;;;1.63;;
1601;SDS011;794;48.592;9.634;2023-02-17T07:16:52;1.60;;;1.07;;
1601;SDS011;794;48.592;9.634;2023-02-17T07:19:21;1.57;;;1.47;;
1601;SDS011;794;48.592;9.634;2023-02-17T07:21:48;2.23;;;1.30;;
1601;SDS011;794;48.592;9.634;2023-02-17T07:24:14;5.60;;;1.70;;
1601;SDS011;794;48.592;9.634;2023-02-17T07:26:42;4.07;;;2.90;;
1601;SDS011;794;48.592;9.634;2023-02-17T07:29:09;4.10;;;3.30;;
1601;SDS011;794;48.592;9.634;2023-02-17T07:31:36;7.63;;;4.40;;
1601;SDS011;794;48.592;9.634;2023-02-17T07:34:04;5.20;;;3.37;;
1601;SDS011;794;48.592;9.634;2023-02-17T07:36:32;8.87;;;5.50;;
1601;SDS011;794;48.592;9.634;2023-02-17T07:38:59;3.37;;;2.50;;
1601;SDS011;794;48.592;9.634;2023-02-17T07:41:27;2.53;;;2.23;;
1601;SDS011;794;48.592;9.634;2023-02-17T07:43:56;3.53;;;2.90;;
1601;SDS011;794;48.592;9.634;2023-02-17T07:46:24;3.13;;;2.70;;
1601;SDS011;794;48.592;9.634;2023-02-17T07:48:51;2.70;;;1.93;;
1601;SDS011;794;48.592;9.634;2023-02-17T07:51:19;1.77;;;1.67;;
1601;SDS011;794;48.592;9.634;2023-02-17T07:53:49;2.23;;;1.77;;
1601;SDS011;794;48.592;9.634;2023-02-17T07:56:18;3.20;;;2.90;;
1601;SDS011;794;48.592;9.634;2023-02-17T07:58:45;2.63;;;1.70;;
1601;SDS011;794;48.592;9.634;2023-02-17T08:01:14;6.63;;;4.90;;
1601;SDS011;794;48.592;9.634;2023-02-17T08:03:41;2.10;;;1.80;;
1601;SDS011;794;48.592;9.634;2023-02-17T08:06:09;1.70;;;1.40;;
1601;SDS011;794;48.592;9.634;2023-02-17T08:08:36;1.50;;;1.40;;
1601;SDS011;794;48.592;9.634;2023-02-17T08:11:22;2.10;;;1.53;;
1601;SDS011;794;48.592;9.634;2023-02-17T08:14:06;3.03;;;1.70;;
1601;SDS011;794;48.592;9.634;2023-02-17T08:16:33;2.17;;;1.83;;
1601;SDS011;794;48.592;9.634;2023-02-17T08:19:00;4.77;;;3.33;;
1601;SDS011;794;48.592;9.634;2023-02-17T08:21:27;2.70;;;1.87;;
1601;SDS011;794;48.592;9.634;2023-02-17T08:23:54;5.63;;;3.37;;
1601;SDS011;794;48.592;9.634;2023-02-17T08:26:23;2.73;;;2.50;;
1601;SDS011;794;48.592;9.634;2023-02-17T08:28:50;4.00;;;3.17;;
1601;SDS011;794;48.592;9.634;2023-02-17T08:31:17;4.20;;;1.87;;
1601;SDS011;794;48.592;9.634;2023-02-17T08:33:47;2.00;;;1.90;;
1601;SDS011;794;48.592;9.634;2023-02-17T08:36:15;2.40;;;1.80;;
1601;SDS011;794;48.592;9.634;2023-02-17T08:38:42;2.60;;;2.17;;
1601;SDS011;794;48.592;9.634;2023-02-17T08:41:14;1.57;;;1.47;;
1601;SDS011;794;48.592;9.634;2023-02-17T08:43:43;3.10;;;1.87;;
1601;SDS011;794;48.592;9.634;2023-02-17T08:46:11;1.97;;;1.60;;
1601;SDS011;794;48.592;9.634;2023-02-17T08:48:38;3.33;;;2.17;;
1601;SDS011;794;48.592;9.634;2023-02-17T08:51:06;4.03;;;2.17;;
1601;SDS011;794;48.592;9.634;2023-02-17T08:53:33;8.40;;;3.47;;
1601;SDS011;794;48.592;9.634;2023-02-17T08:56:00;2.60;;;2.40;;
1601;SDS011;794;48.592;9.634;2023-02-17T08:58:27;4.67;;;2.13;;
1601;SDS011;794;48.592;9.634;2023-02-17T09:00:55;4.30;;;2.67;;
1601;SDS011;794;48.592;9.634;2023-02-17T09:13:28;2.70;;;2.07;;
1601;SDS011;794;48.592;9.634;2023-02-17T09:15:57;10.10;;;2.40;;
1601;SDS011;794;48.592;9.634;2023-02-17T09:18:24;2.17;;;1.90;;
1601;SDS011;794;48.592;9.634;2023-02-17T09:20:51;2.67;;;1.80;;
1601;SDS011;794;48.592;9.634;2023-02-17T09:23:18;2.00;;;1.77;;
1601;SDS011;794;48.592;9.634;2023-02-17T09:25:45;3.57;;;1.83;;
1601;SDS011;794;48.592;9.634;2023-02-17T09:28:12;2.20;;;1.70;;
1601;SDS011;794;48.592;9.634;2023-02-17T09:30:39;1.57;;;1.47;;
1601;SDS011;794;48.592;9.634;2023-02-17T09:33:08;4.90;;;1.50;;
1601;SDS011;794;48.592;9.634;2023-02-17T09:35:35;3.10;;;2.07;;
1601;SDS011;794;48.592;9.634;2023-02-17T09:38:03;1.30;;;1.30;;
1601;SDS011;794;48.592;9.634;2023-02-17T09:40:32;3.67;;;1.60;;
1601;SDS011;794;48.592;9.634;2023-02-17T09:43:03;1.60;;;1.20;;
1601;SDS011;794;48.592;9.634;2023-02-17T09:45:33;2.30;;;1.20;;
1601;SDS011;794;48.592;9.634;2023-02-17T09:48:02;1.03;;;0.80;;
1601;SDS011;794;48.592;9.634;2023-02-17T09:50:38;1.80;;;1.30;;
1601;SDS011;794;48.592;9.634;2023-02-17T09:53:14;1.13;;;1.00;;
1601;SDS011;794;48.592;9.634;2023-02-17T09:55:48;4.00;;;1.57;;
1601;SDS011;794;48.592;9.634;2023-02-17T09:58:19;1.20;;;1.10;;
1601;SDS011;794;48.592;9.634;2023-02-17T10:00:50;1.47;;;1.37;;
1601;SDS011;794;48.592;9.634;2023-02-17T10:03:22;1.30;;;1.20;;
1601;SDS011;794;48.592;9.634;2023-02-17T10:05:58;1.70;;;1.20;;
1601;SDS011;794;48.592;9.634;2023-02-17T10:08:33;2.30;;;1.07;;
1601;SDS011;794;48.592;9.634;2023-02-17T10:11:06;1.03;;;1.00;;
1601;SDS011;794;48.592;9.634;2023-02-17T10:13:41;1.50;;;1.40;;
1601;SDS011;794;48.592;9.634;2023-02-17T10:16:18;1.80;;;1.70;;
1601;SDS011;794;48.592;9.634;2023-02-17T10:18:52;2.30;;;1.30;;
1601;SDS011;794;48.592;9.634;2023-02-17T10:21:26;1.37;;;1.03;;
1601;SDS011;794;48.592;9.634;2023-02-17T10:23:56;1.53;;;1.43;;
1601;SDS011;794;48.592;9.634;2023-02-17T10:26:25;1.70;;;1.57;;
1601;SDS011;794;48.592;9.634;2023-02-17T10:29:12;1.47;;;1.37;;
1601;SDS011;794;48.592;9.634;2023-02-17T10:31:53;1.70;;;1.60;;
1601;SDS011;794;48.592;9.634;2023-02-17T10:34:31;2.00;;;1.80;;
1601;SDS011;794;48.592;9.634;2023-02-17T10:37:03;2.10;;;1.97;;
1601;SDS011;794;48.592;9.634;2023-02-17T10:39:41;2.30;;;2.00;;
1601;SDS011;794;48.592;9.634;2023-02-17T10:42:17;4.13;;;2.83;;
1601;SDS011;794;48.592;9.634;2023-02-17T10:44:47;1.50;;;1.20;;
1601;SDS011;794;48.592;9.634;2023-02-17T10:47:16;1.70;;;1.40;;
1601;SDS011;794;48.592;9.634;2023-02-17T10:49:44;2.10;;;1.67;;
1601;SDS011;794;48.592;9.634;2023-02-17T10:52:16;2.93;;;1.53;;
1601;SDS011;794;48.592;9.634;2023-02-17T10:54:45;1.43;;;1.20;;
1601;SDS011;794;48.592;9.634;2023-02-17T10:57:18;10.30;;;2.70;;
1601;SDS011;794;48.592;9.634;2023-02-17T10:59:47;3.67;;;1.57;;
1601;SDS011;794;48.592;9.634;2023-02-17T11:02:19;1.87;;;1.73;;
1601;SDS011;794;48.592;9.634;2023-02-17T11:04:48;1.30;;;1.20;;
1601;SDS011;794;48.592;9.634;2023-02-17T11:07:21;3.00;;;1.30;;
1601;SDS011;794;48.592;9.634;2023-02-17T11:09:57;1.73;;;1.63;;
1601;SDS011;794;48.592;9.634;2023-02-17T11:12:27;2.83;;;1.90;;
1601;SDS011;794;48.592;9.634;2023-02-17T11:14:58;3.00;;;2.70;;
1601;SDS011;794;48.592;9.634;2023-02-17T11:17:30;1.77;;;1.53;;
1601;SDS011;794;48.592;9.634;2023-02-17T11:20:02;1.90;;;1.47;;
1601;SDS011;794;48.592;9.634;2023-02-17T11:22:34;2.27;;;1.37;;
1601;SDS011;794;48.592;9.634;2023-02-17T11:25:06;1.43;;;1.33;;
1601;SDS011;794;48.592;9.634;2023-02-17T11:27:48;1.50;;;1.40;;
1601;SDS011;794;48.592;9.634;2023-02-17T11:30:16;2.73;;;1.60;;
1601;SDS011;794;48.592;9.634;2023-02-17T11:32:47;2.97;;;1.27;;
1601;SDS011;794;48.592;9.634;2023-02-17T11:35:21;2.93;;;2.73;;
1601;SDS011;794;48.592;9.634;2023-02-17T11:37:52;2.23;;;1.80;;
1601;SDS011;794;48.592;9.634;2023-02-17T11:40:27;2.50;;;1.60;;
1601;SDS011;794;48.592;9.634;2023-02-17T11:42:56;2.00;;;1.80;;
1601;SDS011;794;48.592;9.634;2023-02-17T11:45:24;3.77;;;3.47;;
1601;SDS011;794;48.592;9.634;2023-02-17T11:47:57;1.67;;;1.57;;
1601;SDS011;794;48.592;9.634;2023-02-17T11:50:48;1.77;;;1.33;;
1601;SDS011;794;48.592;9.634;2023-02-17T11:53:28;1.63;;;1.50;;
1601;SDS011;794;48.592;9.634;2023-02-17T11:56:12;1.67;;;1.57;;
1601;SDS011;794;48.592;9.634;2023-02-17T11:58:50;2.80;;;2.03;;
1601;SDS011;794;48.592;9.634;2023-02-17T12:01:38;1.67;;;1.57;;
1601;SDS011;794;48.592;9.634;2023-02-17T12:04:25;1.10;;;1.00;;
1601;SDS011;794;48.592;9.634;2023-02-17T12:09:59;1.63;;;1.17;;
1601;SDS011;794;48.592;9.634;2023-02-17T12:12:33;2.43;;;2.00;;
1601;SDS011;794;48.592;9.634;2023-02-17T12:15:19;1.87;;;1.50;;
1601;SDS011;794;48.592;9.634;2023-02-17T12:17:54;4.10;;;2.60;;
1601;SDS011;794;48.592;9.634;2023-02-17T12:20:33;2.83;;;2.10;;
1601;SDS011;794;48.592;9.634;2023-02-17T12:23:10;2.00;;;1.17;;
1601;SDS011;794;48.592;9.634;2023-02-17T12:25:56;1.67;;;1.07;;
1601;SDS011;794;48.592;9.634;2023-02-17T12:28:35;1.20;;;1.20;;
1601;SDS011;794;48.592;9.634;2023-02-17T12:31:14;1.30;;;1.20;;
1601;SDS011;794;48.592;9.634;2023-02-17T12:33:53;1.47;;;1.30;;
1601;SDS011;794;48.592;9.634;2023-02-17T12:36:26;1.10;;;0.93;;
1601;SDS011;794;48.592;9.634;2023-02-17T12:38:58;1.60;;;0.80;;
1601;SDS011;794;48.592;9.634;2023-02-17T12:41:30;1.50;;;1.40;;
1601;SDS011;794;48.592;9.634;2023-02-17T12:44:02;2.30;;;1.43;;
1601;SDS011;794;48.592;9.634;2023-02-17T12:46:34;2.40;;;1.70;;
1601;SDS011;794;48.592;9.634;2023-02-17T12:49:07;4.27;;;2.87;;
1601;SDS011;794;48.592;9.634;2023-02-17T12:51:38;4.70;;;2.03;;
1601;SDS011;794;48.592;9.634;2023-02-17T12:54:11;2.20;;;2.00;;
1601;SDS011;794;48.592;9.634;2023-02-17T12:56:55;3.60;;;1.30;;
1601;SDS011;794;48.592;9.634;2023-02-17T12:59:31;1.93;;;1.73;;
1601;SDS011;794;48.592;9.634;2023-02-17T13:02:02;1.70;;;1.60;;
1601;SDS011;794;48.592;9.634;2023-02-17T13:04:31;2.27;;;1.67;;
1601;SDS011;794;48.592;9.634;2023-02-17T13:07:07;1.20;;;1.10;;
1601;SDS011;794;48.592;9.634;2023-02-17T13:09:58;1.40;;;1.10;;
1601;SDS011;794;48.592;9.634;2023-02-17T13:12:37;1.07;;;0.87;;
1601;SDS011;794;48.592;9.634;2023-02-17T13:15:09;1.50;;;1.37;;
1601;SDS011;794;48.592;9.634;2023-02-17T13:17:53;2.00;;;1.13;;
1601;SDS011;794;48.592;9.634;2023-02-17T13:20:39;2.40;;;1.80;;
1601;SDS011;794;48.592;9.634;2023-02-17T13:23:10;1.90;;;1.80;;
1601;SDS011;794;48.592;9.634;2023-02-17T13:25:39;1.40;;;1.30;;
1601;SDS011;794;48.592;9.634;2023-02-17T13:28:32;1.57;;;1.47;;
1601;SDS011;794;48.592;9.634;2023-02-17T13:31:10;5.70;;;4.50;;
1601;SDS011;794;48.592;9.634;2023-02-17T13:33:40;1.73;;;1.63;;
1601;SDS011;794;48.592;9.634;2023-02-17T13:36:13;1.23;;;1.07;;
1601;SDS011;794;48.592;9.634;2023-02-17T13:38:51;1.83;;;0.90;;
1601;SDS011;794;48.592;9.634;2023-02-17T13:41:21;1.27;;;0.90;;
1601;SDS011;794;48.592;9.634;2023-02-17T13:43:50;1.23;;;1.13;;
1601;SDS011;794;48.592;9.634;2023-02-17T13:46:18;1.67;;;1.30;;
1601;SDS011;794;48.592;9.634;2023-02-17T13:48:56;1.20;;;1.10;;
1601;SDS011;794;48.592;9.634;2023-02-17T13:51:25;1.80;;;1.13;;
1601;SDS011;794;48.592;9.634;2023-02-17T13:53:56;1.50;;;1.13;;
1601;SDS011;794;48.592;9.634;2023-02-17T13:56:31;1.43;;;0.90;;
1601;SDS011;794;48.592;9.634;2023-02-17T13:59:09;2.07;;;1.20;;
1601;SDS011;794;48.592;9.634;2023-02-17T14:01:42;1.43;;;1.10;;
1601;SDS011;794;48.592;9.634;2023-02-17T14:04:16;1.00;;;0.90;;
1601;SDS011;794;48.592;9.634;2023-02-17T14:06:45;1.37;;;1.03;;
1601;SDS011;794;48.592;9.634;2023-02-17T14:09:21;1.47;;;1.20;;
1601;SDS011;794;48.592;9.634;2023-02-17T14:11:50;0.80;;;0.73;;
1601;SDS011;794;48.592;9.634;2023-02-17T14:14:20;1.00;;;0.87;;
1601;SDS011;794;48.592;9.634;2023-02-17T14:16:59;1.67;;;1.07;;
1601;SDS011;794;48.592;9.634;2023-02-17T14:19:28;2.07;;;1.07;;
1601;SDS011;794;48.592;9.634;2023-02-17T14:22:06;0.90;;;0.80;;
1601;SDS011;794;48.592;9.634;2023-02-17T14:24:33;0.97;;;0.97;;
1601;SDS011;794;48.592;9.634;2023-02-17T14:27:02;2.53;;;0.93;;
1601;SDS011;794;48.592;9.634;2023-02-17T14:29:40;1.20;;;0.90;;
1601;SDS011;794;48.592;9.634;2023-02-17T14:34:51;1.50;;;1.20;;
1601;SDS011;794;48.592;9.634;2023-02-17T14:37:19;1.57;;;1.30;;
1601;SDS011;794;48.592;9.634;2023-02-17T14:39:50;0.97;;;0.90;;
1601;SDS011;794;48.592;9.634;2023-02-17T14:42:17;1.23;;;1.10;;
1601;SDS011;794;48.592;9.634;2023-02-17T14:44:48;1.23;;;0.93;;
1601;SDS011;794;48.592;9.634;2023-02-17T14:47:15;1.17;;;1.07;;
1601;SDS011;794;48.592;9.634;2023-02-17T14:49:42;1.00;;;1.00;;
1601;SDS011;794;48.592;9.634;2023-02-17T14:52:15;1.63;;;0.97;;
1601;SDS011;794;48.592;9.634;2023-02-17T14:54:47;4.70;;;1.13;;
1601;SDS011;794;48.592;9.634;2023-02-17T14:57:14;1.10;;;0.90;;
1601;SDS011;794;48.592;9.634;2023-02-17T14:59:42;1.63;;;0.90;;
1601;SDS011;794;48.592;9.634;2023-02-17T15:02:14;1.30;;;1.00;;
1601;SDS011;794;48.592;9.634;2023-02-17T15:04:43;1.00;;;0.90;;
1601;SDS011;794;48.592;9.634;2023-02-17T15:07:11;1.10;;;0.87;;
1601;SDS011;794;48.592;9.634;2023-02-17T15:09:40;1.23;;;0.80;;
1601;SDS011;794;48.592;9.634;2023-02-17T15:12:09;0.90;;;0.80;;
1601;SDS011;794;48.592;9.634;2023-02-17T15:14:39;1.73;;;0.80;;
1601;SDS011;794;48.592;9.634;2023-02-17T15:17:06;0.70;;;0.70;;
1601;SDS011;794;48.592;9.634;2023-02-17T15:19:35;2.60;;;1.10;;
1601;SDS011;794;48.592;9.634;2023-02-17T15:22:02;1.93;;;0.70;;
1601;SDS011;794;48.592;9.634;2023-02-17T15:24:30;0.80;;;0.80;;
1601;SDS011;794;48.592;9.634;2023-02-17T15:26:59;2.93;;;1.00;;
1601;SDS011;794;48.592;9.634;2023-02-17T15:29:26;0.87;;;0.87;;
1601;SDS011;794;48.592;9.634;2023-02-17T15:31:54;2.03;;;1.30;;
1601;SDS011;794;48.592;9.634;2023-02-17T15:34:25;2.33;;;1.20;;
1601;SDS011;794;48.592;9.634;2023-02-17T15:36:56;1.17;;;1.07;;
1601;SDS011;794;48.592;9.634;2023-02-17T15:39:23;1.23;;;0.90;;
1601;SDS011;794;48.592;9.634;2023-02-17T15:41:50;1.23;;;0.93;;
1601;SDS011;794;48.592;9.634;2023-02-17T15:44:20;1.50;;;1.40;;
1601;SDS011;794;48.592;9.634;2023-02-17T15:46:49;0.83;;;0.83;;
1601;SDS011;794;48.592;9.634;2023-02-17T15:49:17;1.33;;;0.90;;
1601;SDS011;794;48.592;9.634;2023-02-17T15:51:44;0.87;;;0.87;;
1601;SDS011;794;48.592;9.634;2023-02-17T15:54:12;1.57;;;1.10;;
1601;SDS011;794;48.592;9.634;2023-02-17T15:56:47;0.80;;;0.73;;
1601;SDS011;794;48.592;9.634;2023-02-17T15:59:17;1.80;;;1.10;;
1601;SDS011;794;48.592;9.634;2023-02-17T16:01:47;1.30;;;1.03;;
1601;SDS011;794;48.592;9.634;2023-02-17T16:04:14;1.20;;;1.10;;
1601;SDS011;794;48.592;9.634;2023-02-17T16:06:45;2.33;;;2.13;;